createdAt,value
2018-03-25T00:02:22.363Z,52.64
2018-03-25T00:04:51.599Z,52.67
2018-03-25T00:07:21.287Z,52.85
2018-03-25T00:09:50.819Z,53.05
2018-03-25T00:12:20.303Z,52.99
2018-03-25T00:14:49.670Z,53.11
2018-03-25T00:17:18.846Z,53.10
2018-03-25T00:19:48.420Z,53.26
2018-03-25T00:22:17.840Z,53.05
2018-03-25T00:24:47.205Z,52.88
2018-03-25T00:27:16.659Z,53.11
2018-03-25T00:29:46.256Z,53.02
2018-03-25T00:32:15.608Z,52.65
2018-03-25T00:34:45.069Z,52.99
2018-03-25T00:37:14.315Z,52.83
2018-03-25T00:39:43.763Z,52.68
2018-03-25T00:42:13.198Z,52.86
2018-03-25T00:44:42.365Z,52.84
2018-03-25T00:47:11.870Z,52.51
2018-03-25T00:49:41.103Z,52.41
2018-03-25T00:52:10.225Z,52.22
2018-03-25T00:54:39.578Z,52.08
2018-03-25T00:57:08.966Z,52.03
2018-03-25T00:59:38.129Z,51.98
2018-03-25T01:02:07.307Z,51.70
2018-03-25T01:04:36.665Z,51.80
2018-03-25T01:07:05.983Z,51.90
2018-03-25T01:09:35.080Z,51.69
2018-03-25T01:12:04.339Z,51.46
2018-03-25T01:14:33.773Z,51.32
2018-03-25T01:17:03.057Z,50.86
2018-03-25T01:19:32.307Z,50.50
2018-03-25T01:22:01.578Z,50.62
2018-03-25T01:24:30.617Z,50.62
2018-03-25T01:27:00.037Z,49.87
2018-03-25T01:29:29.972Z,48.45
2018-03-25T01:31:59.250Z,47.88
2018-03-25T01:34:28.651Z,47.83
2018-03-25T01:36:58.146Z,46.85
2018-03-25T01:39:27.577Z,46.57
2018-03-25T01:41:57.297Z,45.99
2018-03-25T01:44:26.736Z,45.59
2018-03-25T01:49:29.697Z,45.01
2018-03-25T01:51:59.199Z,45.02
2018-03-25T01:54:28.561Z,44.22
2018-03-25T01:56:57.887Z,43.84
2018-03-25T01:59:27.107Z,44.08
2018-03-25T02:01:56.569Z,43.34
2018-03-25T02:04:25.736Z,42.86
2018-03-25T02:06:55.481Z,42.83
2018-03-25T02:09:24.682Z,43.53
2018-03-25T02:11:53.869Z,42.49
2018-03-25T02:14:23.305Z,42.05
2018-03-25T02:16:52.752Z,41.28
2018-03-25T02:19:22.020Z,41.30
2018-03-25T02:21:51.517Z,41.36
2018-03-25T02:24:20.806Z,41.38
2018-03-25T02:26:50.060Z,41.72
2018-03-25T02:29:19.401Z,41.17
2018-03-25T02:31:48.631Z,40.29
2018-03-25T02:34:18.068Z,40.55
2018-03-25T02:36:47.644Z,40.71
2018-03-25T02:39:16.960Z,40.81
2018-03-25T02:41:46.651Z,41.32
2018-03-25T02:44:15.911Z,40.10
2018-03-25T02:46:45.071Z,39.28
2018-03-25T02:49:14.276Z,40.14
2018-03-25T02:51:43.240Z,40.32
2018-03-25T02:54:12.541Z,40.41
2018-03-25T02:56:41.744Z,39.46
2018-03-25T02:59:11.160Z,39.49
2018-03-25T03:01:40.475Z,39.74
2018-03-25T03:04:09.904Z,39.16
2018-03-25T03:06:39.166Z,39.27
2018-03-25T03:09:08.303Z,37.79
2018-03-25T03:11:37.832Z,40.02
2018-03-25T03:14:07.283Z,38.83
2018-03-25T03:16:36.765Z,39.78
2018-03-25T03:19:05.637Z,38.54
2018-03-25T03:21:34.950Z,39.25
2018-03-25T03:24:04.324Z,38.30
2018-03-25T03:26:33.640Z,37.85
2018-03-25T03:29:03.149Z,37.19
2018-03-25T03:31:32.449Z,37.35
2018-03-25T03:34:01.594Z,37.34
2018-03-25T03:36:30.846Z,37.13
2018-03-25T03:39:00.390Z,36.33
2018-03-25T03:41:29.826Z,36.40
2018-03-25T03:43:59.369Z,36.75
2018-03-25T03:46:28.772Z,36.77
2018-03-25T03:48:58.319Z,36.73
2018-03-25T03:51:27.745Z,36.25
2018-03-25T03:53:57.239Z,35.61
2018-03-25T03:56:26.721Z,36.13
2018-03-25T03:58:56.400Z,36.56
2018-03-25T04:01:25.748Z,36.44
2018-03-25T04:03:55.211Z,35.93
2018-03-25T04:06:24.735Z,36.03
2018-03-25T04:08:53.956Z,36.88
2018-03-25T04:11:23.272Z,37.68
2018-03-25T04:13:52.773Z,35.19
2018-03-25T04:16:22.114Z,35.79
2018-03-25T04:18:51.468Z,35.65
2018-03-25T04:21:20.886Z,35.52
2018-03-25T04:23:56.122Z,33.77
2018-03-25T04:26:25.449Z,32.93
2018-03-25T04:28:54.637Z,33.48
2018-03-25T04:31:24.314Z,33.70
2018-03-25T04:33:53.642Z,33.74
2018-03-25T04:36:23.117Z,35.04
2018-03-25T04:38:52.423Z,34.32
2018-03-25T04:41:21.766Z,34.18
2018-03-25T04:43:51.181Z,33.00
2018-03-25T04:46:20.260Z,32.25
2018-03-25T04:48:49.644Z,31.65
2018-03-25T04:51:18.941Z,31.65
2018-03-25T04:53:48.274Z,30.59
2018-03-25T04:56:17.600Z,30.52
2018-03-25T04:58:46.795Z,29.35
2018-03-25T05:01:16.289Z,29.88
2018-03-25T05:03:45.826Z,30.69
2018-03-25T05:06:15.093Z,28.46
2018-03-25T05:08:44.631Z,29.39
2018-03-25T05:11:14.078Z,29.42
2018-03-25T05:13:43.400Z,26.37
2018-03-25T05:16:12.635Z,27.64
2018-03-25T05:18:42.018Z,28.06
2018-03-25T05:21:11.191Z,27.14
2018-03-25T05:23:40.378Z,28.33
2018-03-25T05:26:09.558Z,28.94
2018-03-25T05:28:39.024Z,29.33
2018-03-25T05:31:08.747Z,28.29
2018-03-25T05:33:38.218Z,28.59
2018-03-25T05:36:07.576Z,27.10
2018-03-25T05:38:36.776Z,26.27
2018-03-25T05:41:06.094Z,27.47
2018-03-25T05:43:35.137Z,24.73
2018-03-25T05:46:03.923Z,26.06
2018-03-25T05:48:32.742Z,25.10
2018-03-25T05:51:01.899Z,25.71
2018-03-25T05:53:31.224Z,25.33
2018-03-25T05:56:00.517Z,25.00
2018-03-25T05:58:30.000Z,23.79
2018-03-25T06:00:59.385Z,24.26
2018-03-25T06:03:28.621Z,25.59
2018-03-25T06:05:58.137Z,25.26
2018-03-25T06:08:27.371Z,23.18
2018-03-25T06:10:56.106Z,22.33
2018-03-25T06:13:25.050Z,22.36
2018-03-25T06:15:54.041Z,24.12
2018-03-25T06:18:23.218Z,22.34
2018-03-25T06:20:52.466Z,22.43
2018-03-25T06:23:21.662Z,22.04
2018-03-25T06:25:51.071Z,22.16
2018-03-25T06:28:19.995Z,22.58
2018-03-25T06:30:49.231Z,22.05
2018-03-25T06:33:19.258Z,21.40
2018-03-25T06:35:48.560Z,21.33
2018-03-25T06:38:17.755Z,21.09
2018-03-25T06:40:46.896Z,19.75
2018-03-25T06:43:16.142Z,21.06
2018-03-25T06:45:45.768Z,20.78
2018-03-25T06:48:15.037Z,19.62
2018-03-25T06:50:44.210Z,20.16
2018-03-25T06:53:13.478Z,20.79
2018-03-25T06:55:42.188Z,21.62
2018-03-25T06:58:11.476Z,21.32
2018-03-25T07:00:40.285Z,20.61
2018-03-25T07:03:09.274Z,19.85
2018-03-25T07:05:38.618Z,20.42
2018-03-25T07:08:07.939Z,21.29
2018-03-25T07:10:37.432Z,21.29
2018-03-25T07:13:07.037Z,20.77
2018-03-25T07:15:36.484Z,19.56
2018-03-25T07:18:05.458Z,20.40
2018-03-25T07:20:35.259Z,19.09
2018-03-25T07:23:04.579Z,19.92
2018-03-25T07:25:34.046Z,19.21
2018-03-25T07:28:03.147Z,19.78
2018-03-25T07:30:32.218Z,19.11
2018-03-25T07:33:01.252Z,19.65
2018-03-25T07:35:30.954Z,19.73
2018-03-25T07:38:00.479Z,20.40
2018-03-25T07:40:29.673Z,19.74
2018-03-25T07:42:59.014Z,19.21
2018-03-25T07:45:27.922Z,19.49
2018-03-25T07:47:56.850Z,19.23
2018-03-25T07:50:25.673Z,21.37
2018-03-25T07:52:55.051Z,20.77
2018-03-25T07:55:24.417Z,18.92
2018-03-25T07:57:53.791Z,19.17
2018-03-25T08:00:25.210Z,19.45
2018-03-25T08:02:54.677Z,18.90
2018-03-25T08:05:24.082Z,18.98
2018-03-25T08:07:53.441Z,18.74
2018-03-25T08:10:22.570Z,18.98
2018-03-25T08:12:51.777Z,18.91
2018-03-25T08:15:21.042Z,17.89
2018-03-25T08:17:50.567Z,18.46
2018-03-25T08:20:19.802Z,17.42
2018-03-25T08:22:49.341Z,18.11
2018-03-25T08:25:18.633Z,18.21
2018-03-25T08:27:48.022Z,18.45
2018-03-25T08:30:17.207Z,18.31
2018-03-25T08:32:46.921Z,18.67
2018-03-25T08:35:16.144Z,18.73
2018-03-25T08:37:46.498Z,18.42
2018-03-25T08:40:16.218Z,18.40
2018-03-25T08:42:46.423Z,19.21
2018-03-25T08:45:16.049Z,19.44
2018-03-25T08:47:45.540Z,18.84
2018-03-25T08:50:15.388Z,19.13
2018-03-25T08:52:44.504Z,19.55
2018-03-25T08:55:14.104Z,20.70
2018-03-25T08:57:43.366Z,19.67
2018-03-25T09:00:12.931Z,19.86
2018-03-25T09:02:42.239Z,19.72
2018-03-25T09:05:11.273Z,20.38
2018-03-25T09:07:40.730Z,19.78
2018-03-25T09:10:09.881Z,20.62
2018-03-25T09:12:39.009Z,19.37
2018-03-25T09:15:08.758Z,19.50
2018-03-25T09:17:37.851Z,19.43
2018-03-25T09:20:06.982Z,18.43
2018-03-25T09:22:36.175Z,19.08
2018-03-25T09:25:05.752Z,18.76
2018-03-25T09:27:35.068Z,19.12
2018-03-25T09:30:04.279Z,19.69
2018-03-25T09:32:33.874Z,20.28
2018-03-25T09:35:04.407Z,19.88
2018-03-25T09:37:33.467Z,18.41
2018-03-25T09:40:02.563Z,18.61
2018-03-25T09:42:32.164Z,19.47
2018-03-25T09:45:01.285Z,19.85
2018-03-25T09:47:30.678Z,18.87
2018-03-25T09:49:59.715Z,19.51
2018-03-25T09:52:29.142Z,19.20
2018-03-25T09:54:58.596Z,18.93
2018-03-25T09:57:27.646Z,20.08
2018-03-25T09:59:56.904Z,17.21
2018-03-25T10:02:28.121Z,17.95
2018-03-25T10:04:57.136Z,17.80
2018-03-25T10:07:27.742Z,17.88
2018-03-25T10:09:57.047Z,18.25
2018-03-25T10:12:26.336Z,19.22
2018-03-25T10:14:55.858Z,17.64
2018-03-25T10:17:25.331Z,17.31
2018-03-25T10:19:54.503Z,17.22
2018-03-25T10:22:24.061Z,17.21
2018-03-25T10:24:53.908Z,17.69
2018-03-25T10:27:23.603Z,17.08
2018-03-25T10:29:53.099Z,17.25
2018-03-25T10:32:22.760Z,17.25
2018-03-25T10:34:51.959Z,17.66
2018-03-25T10:37:21.284Z,16.90
2018-03-25T10:39:50.813Z,17.21
2018-03-25T10:42:20.097Z,16.37
2018-03-25T10:44:49.489Z,16.59
2018-03-25T10:47:18.690Z,16.77
2018-03-25T10:49:48.166Z,16.27
2018-03-25T10:52:17.458Z,16.70
2018-03-25T10:54:46.869Z,17.20
2018-03-25T10:57:16.004Z,16.49
2018-03-25T10:59:45.592Z,17.17
2018-03-25T11:02:14.958Z,17.61
2018-03-25T11:04:44.513Z,17.86
2018-03-25T11:07:13.903Z,16.76
2018-03-25T11:09:42.889Z,16.89
2018-03-25T11:12:11.827Z,16.91
2018-03-25T11:14:41.174Z,17.62
2018-03-25T11:17:10.411Z,17.95
2018-03-25T11:19:39.807Z,17.38
2018-03-25T11:22:08.802Z,17.89
2018-03-25T11:24:38.152Z,18.00
2018-03-25T11:27:07.275Z,17.94
2018-03-25T11:29:36.373Z,17.74
2018-03-25T11:32:06.129Z,18.28
2018-03-25T11:34:35.266Z,18.91
2018-03-25T11:37:04.374Z,18.86
2018-03-25T11:39:33.541Z,18.93
2018-03-25T11:42:02.651Z,19.29
2018-03-25T11:44:31.876Z,20.30
2018-03-25T11:47:01.177Z,20.07
2018-03-25T11:49:31.480Z,19.37
2018-03-25T11:52:00.760Z,19.26
2018-03-25T11:54:30.076Z,19.37
2018-03-25T11:56:59.601Z,19.30
2018-03-25T11:59:28.592Z,18.90
2018-03-25T12:01:58.176Z,19.55
2018-03-25T12:04:27.665Z,19.11
2018-03-25T12:06:57.032Z,18.82
2018-03-25T12:09:26.278Z,18.82
2018-03-25T12:11:55.786Z,19.37
2018-03-25T12:14:24.830Z,19.43
2018-03-25T12:16:54.239Z,19.16
2018-03-25T12:19:23.619Z,19.68
2018-03-25T12:21:53.217Z,19.00
2018-03-25T12:24:22.423Z,19.84
2018-03-25T12:26:51.950Z,19.63
2018-03-25T12:29:21.477Z,19.36
2018-03-25T12:31:50.536Z,19.33
2018-03-25T12:34:20.116Z,19.14
2018-03-25T12:36:49.525Z,19.42
2018-03-25T12:39:18.802Z,19.48
2018-03-25T12:41:48.219Z,19.79
2018-03-25T12:44:17.555Z,19.96
2018-03-25T12:46:46.832Z,21.55
2018-03-25T12:49:16.108Z,20.53
2018-03-25T12:51:46.599Z,20.54
2018-03-25T12:54:15.971Z,20.75
2018-03-25T12:56:45.188Z,20.98
2018-03-25T12:59:14.644Z,21.20
2018-03-25T13:01:44.021Z,21.45
2018-03-25T13:04:13.370Z,21.68
2018-03-25T13:06:42.836Z,21.90
2018-03-25T13:09:12.144Z,22.30
2018-03-25T13:11:41.304Z,22.72
2018-03-25T13:14:10.944Z,22.89
2018-03-25T13:16:39.994Z,22.74
2018-03-25T13:19:09.442Z,23.29
2018-03-25T13:21:38.889Z,22.81
2018-03-25T13:24:08.399Z,25.38
2018-03-25T13:26:37.773Z,23.43
2018-03-25T13:29:07.175Z,23.55
2018-03-25T13:31:36.260Z,23.09
2018-03-25T13:34:05.780Z,23.03
2018-03-25T13:36:35.018Z,23.22
2018-03-25T13:39:04.613Z,23.38
2018-03-25T13:41:34.427Z,23.57
2018-03-25T13:44:04.147Z,23.76
2018-03-25T13:46:33.401Z,23.95
2018-03-25T13:49:03.005Z,24.08
2018-03-25T13:51:32.652Z,24.45
2018-03-25T13:54:01.662Z,24.27
2018-03-25T13:56:31.560Z,24.53
2018-03-25T13:59:01.061Z,24.88
2018-03-25T14:01:30.546Z,25.11
2018-03-25T14:03:59.772Z,25.49
2018-03-25T14:06:29.263Z,25.49
2018-03-25T14:08:58.572Z,25.72
2018-03-25T14:11:28.004Z,25.79
2018-03-25T14:13:57.293Z,26.07
2018-03-25T14:16:26.746Z,26.08
2018-03-25T14:18:56.056Z,26.24
2018-03-25T14:21:25.163Z,26.35
2018-03-25T14:23:54.346Z,26.31
2018-03-25T14:26:23.774Z,26.53
2018-03-25T14:28:52.870Z,26.50
2018-03-25T14:31:22.260Z,27.71
2018-03-25T14:33:52.046Z,26.98
2018-03-25T14:36:22.005Z,27.03
2018-03-25T14:38:51.302Z,26.94
2018-03-25T14:41:20.702Z,27.36
2018-03-25T14:43:50.222Z,27.67
2018-03-25T14:46:19.276Z,28.29
2018-03-25T14:48:48.852Z,27.96
2018-03-25T14:51:18.310Z,29.59
2018-03-25T14:53:47.541Z,29.13
2018-03-25T14:56:16.898Z,28.89
2018-03-25T14:58:47.408Z,28.91
2018-03-25T15:01:16.858Z,29.16
2018-03-25T15:03:45.910Z,29.08
2018-03-25T15:06:15.275Z,29.42
2018-03-25T15:08:44.690Z,30.78
2018-03-25T15:11:14.973Z,29.14
2018-03-25T15:13:44.339Z,29.26
2018-03-25T15:16:13.597Z,29.11
2018-03-25T15:18:42.723Z,29.42
2018-03-25T15:21:12.106Z,29.18
2018-03-25T15:23:41.482Z,28.96
2018-03-25T15:26:11.059Z,29.22
2018-03-25T15:28:40.316Z,29.88
2018-03-25T15:31:09.559Z,30.15
2018-03-25T15:33:38.762Z,30.04
2018-03-25T15:36:08.123Z,30.32
2018-03-25T15:38:38.524Z,30.02
2018-03-25T15:41:08.050Z,30.58
2018-03-25T15:43:37.383Z,30.44
2018-03-25T15:46:06.982Z,31.34
2018-03-25T15:48:36.412Z,31.04
2018-03-25T15:51:05.561Z,31.11
2018-03-25T15:53:35.086Z,31.05
2018-03-25T15:56:04.603Z,31.34
2018-03-25T15:58:33.911Z,30.68
2018-03-25T16:01:03.300Z,30.87
2018-03-25T16:03:32.709Z,30.63
2018-03-25T16:06:02.232Z,30.93
2018-03-25T16:08:31.827Z,30.96
2018-03-25T16:11:01.129Z,30.54
2018-03-25T16:13:30.566Z,31.16
2018-03-25T16:15:59.860Z,30.95
2018-03-25T16:18:29.238Z,30.78
2018-03-25T16:20:58.664Z,31.26
2018-03-25T16:23:28.065Z,31.49
2018-03-25T16:25:57.435Z,31.85
2018-03-25T16:28:26.638Z,31.50
2018-03-25T16:30:56.100Z,31.08
2018-03-25T16:33:25.373Z,31.32
2018-03-25T16:35:54.443Z,31.71
2018-03-25T16:38:23.947Z,31.39
2018-03-25T16:40:53.112Z,31.59
2018-03-25T16:43:22.306Z,31.64
2018-03-25T16:45:51.533Z,31.58
2018-03-25T16:48:20.803Z,31.95
2018-03-25T16:50:50.124Z,31.62
2018-03-25T16:53:19.201Z,31.75
2018-03-25T16:55:48.809Z,32.11
2018-03-25T16:58:18.219Z,32.52
2018-03-25T17:00:47.544Z,32.63
2018-03-25T17:03:17.055Z,32.45
2018-03-25T17:05:46.089Z,32.84
2018-03-25T17:08:15.398Z,32.42
2018-03-25T17:10:44.993Z,32.82
2018-03-25T17:13:14.550Z,32.90
2018-03-25T17:15:43.642Z,33.62
2018-03-25T17:18:13.024Z,33.14
2018-03-25T17:20:42.357Z,33.39
2018-03-25T17:23:17.711Z,33.29
2018-03-25T17:25:46.930Z,33.36
2018-03-25T17:28:16.246Z,33.71
2018-03-25T17:30:45.468Z,33.96
2018-03-25T17:33:14.799Z,33.73
2018-03-25T17:35:44.125Z,34.04
2018-03-25T17:38:13.126Z,33.90
2018-03-25T17:40:42.259Z,34.30
2018-03-25T17:43:11.684Z,33.97
2018-03-25T17:45:40.812Z,34.50
2018-03-25T17:48:09.915Z,34.19
2018-03-25T17:50:39.562Z,34.62
2018-03-25T17:53:08.738Z,34.99
2018-03-25T17:55:37.927Z,34.79
2018-03-25T17:58:07.253Z,34.68
2018-03-25T18:00:36.428Z,34.97
2018-03-25T18:03:05.878Z,35.38
2018-03-25T18:05:35.150Z,34.83
2018-03-25T18:08:04.225Z,35.62
2018-03-25T18:10:33.619Z,35.27
2018-03-25T18:13:03.024Z,35.43
2018-03-25T18:15:32.226Z,35.55
2018-03-25T18:18:01.708Z,35.45
2018-03-25T18:20:30.645Z,36.22
2018-03-25T18:23:00.192Z,36.30
2018-03-25T18:25:29.329Z,36.02
2018-03-25T18:27:58.812Z,35.95
2018-03-25T18:30:28.273Z,36.40
2018-03-25T18:32:57.561Z,35.98
2018-03-25T18:35:26.680Z,36.23
2018-03-25T18:37:56.208Z,36.03
2018-03-25T18:40:25.252Z,36.15
2018-03-25T18:42:54.602Z,36.53
2018-03-25T18:45:23.932Z,36.95
2018-03-25T18:47:53.087Z,36.98
2018-03-25T18:50:22.184Z,37.03
2018-03-25T18:52:52.103Z,37.26
2018-03-25T18:55:21.241Z,36.80
2018-03-25T18:57:50.855Z,36.91
2018-03-25T19:00:20.028Z,37.18
2018-03-25T19:02:49.105Z,37.00
2018-03-25T19:05:18.301Z,37.30
2018-03-25T19:07:47.593Z,37.28
2018-03-25T19:10:17.297Z,37.73
2018-03-25T19:12:46.567Z,37.67
2018-03-25T19:15:16.134Z,37.60
2018-03-25T19:17:45.418Z,37.78
2018-03-25T19:20:14.766Z,38.23
2018-03-25T19:22:43.865Z,38.56
2018-03-25T19:25:13.060Z,38.09
2018-03-25T19:27:42.670Z,38.45
2018-03-25T19:30:11.902Z,38.52
2018-03-25T19:32:41.402Z,38.58
2018-03-25T19:35:10.653Z,38.51
2018-03-25T19:37:40.308Z,38.78
2018-03-25T19:40:09.587Z,39.38
2018-03-25T19:42:39.048Z,39.37
2018-03-25T19:45:08.084Z,39.33
2018-03-25T19:47:37.137Z,39.38
2018-03-25T19:50:06.380Z,39.43
2018-03-25T19:52:35.393Z,39.57
2018-03-25T19:55:04.912Z,39.63
2018-03-25T19:57:34.324Z,40.05
2018-03-25T20:00:03.500Z,39.98
2018-03-25T20:02:32.827Z,39.80
2018-03-25T20:05:02.129Z,40.02
2018-03-25T20:07:31.469Z,40.12
2018-03-25T20:10:00.872Z,40.41
2018-03-25T20:12:30.354Z,40.63
2018-03-25T20:14:59.865Z,40.33
2018-03-25T20:17:29.262Z,40.36
2018-03-25T20:19:58.679Z,40.23
2018-03-25T20:22:27.913Z,40.08
2018-03-25T20:24:57.221Z,40.11
2018-03-25T20:27:26.332Z,39.86
2018-03-25T20:29:55.404Z,39.86
2018-03-25T20:32:24.697Z,40.06
2018-03-25T20:34:54.312Z,39.79
2018-03-25T20:37:23.788Z,39.88
2018-03-25T20:39:53.001Z,40.06
2018-03-25T20:42:22.001Z,40.05
2018-03-25T20:44:51.468Z,40.25
2018-03-25T20:47:21.012Z,40.40
2018-03-25T20:49:50.117Z,40.43
2018-03-25T20:52:19.451Z,40.55
2018-03-25T20:54:48.807Z,40.43
2018-03-25T20:57:18.017Z,40.52
2018-03-25T20:59:47.088Z,40.97
2018-03-25T21:02:16.498Z,41.47
2018-03-25T21:04:45.771Z,41.59
2018-03-25T21:07:15.074Z,41.82
2018-03-25T21:09:44.305Z,41.83
2018-03-25T21:12:13.485Z,42.25
2018-03-25T21:14:42.864Z,42.24
2018-03-25T21:17:12.395Z,42.46
2018-03-25T21:19:41.914Z,42.40
2018-03-25T21:22:11.351Z,42.48
2018-03-25T21:24:41.008Z,42.93
2018-03-25T21:27:10.340Z,42.65
2018-03-25T21:29:39.520Z,42.79
2018-03-25T21:32:08.781Z,43.04
2018-03-25T21:34:38.184Z,43.20
2018-03-25T21:37:07.395Z,43.26
2018-03-25T21:39:36.669Z,43.51
2018-03-25T21:42:05.990Z,43.95
2018-03-25T21:44:35.595Z,44.48
2018-03-25T21:47:04.588Z,44.29
2018-03-25T21:49:33.667Z,44.33
2018-03-25T21:52:02.875Z,43.90
2018-03-25T21:54:32.199Z,43.86
2018-03-25T21:57:02.615Z,43.69
2018-03-25T21:59:32.046Z,43.99
2018-03-25T22:02:01.054Z,43.99
2018-03-25T22:04:30.469Z,44.05
2018-03-25T22:07:00.028Z,44.49
2018-03-25T22:09:29.240Z,44.38
2018-03-25T22:11:58.327Z,44.75
2018-03-25T22:14:27.651Z,44.68
2018-03-25T22:16:56.762Z,44.82
2018-03-25T22:19:26.018Z,44.95
2018-03-25T22:21:55.348Z,45.12
2018-03-25T22:24:24.560Z,45.03
2018-03-25T22:26:54.044Z,44.84
2018-03-25T22:29:23.425Z,44.94
2018-03-25T22:31:52.372Z,45.13
2018-03-25T22:34:21.389Z,44.92
2018-03-25T22:36:50.319Z,44.84
2018-03-25T22:39:19.322Z,44.90
2018-03-25T22:41:48.529Z,45.06
2018-03-25T22:44:17.523Z,45.18
2018-03-25T22:46:47.046Z,44.99
2018-03-25T22:49:16.271Z,44.97
2018-03-25T22:51:45.389Z,45.36
2018-03-25T22:54:14.596Z,45.17
2018-03-25T22:56:44.024Z,45.40
2018-03-25T22:59:13.080Z,45.40
2018-03-25T23:01:42.167Z,45.41
2018-03-25T23:04:11.413Z,45.71
2018-03-25T23:06:40.622Z,45.77
2018-03-25T23:09:09.562Z,45.70
2018-03-25T23:11:38.684Z,45.74
2018-03-25T23:14:08.670Z,46.58
2018-03-25T23:16:38.094Z,46.60
2018-03-25T23:19:07.364Z,46.55
2018-03-25T23:21:36.749Z,46.68
2018-03-25T23:24:05.841Z,47.11
2018-03-25T23:26:35.375Z,47.01
2018-03-25T23:29:04.565Z,47.31
2018-03-25T23:31:33.568Z,47.50
2018-03-25T23:34:03.179Z,47.67
2018-03-25T23:36:32.425Z,47.88
2018-03-25T23:39:01.471Z,48.02
2018-03-25T23:41:30.727Z,48.22
2018-03-25T23:44:00.249Z,48.30
2018-03-25T23:46:29.395Z,48.18
2018-03-25T23:48:59.219Z,48.62
2018-03-25T23:51:28.451Z,48.59
2018-03-25T23:53:57.731Z,48.90
2018-03-25T23:56:27.211Z,48.85
2018-03-25T23:58:56.484Z,49.19
